Portada
METAR-TAF:

METAR-TAF

Aeroports :

Najaf, Iraq

latitud: 31-59-23N, longitud: 44-24-15E, altitud: 31 m

Observació

L'informe es va fer fa 10 minuts, a les 05:00 UTC
Vent 10 kt del Oest
Temperatura 29°C
Humitat 22%
Pressió 1006 hPa
Visibilitat 10 km o més
sense núvols per sota de 1500 mi sense presència de cumulonimbus.

METAR: ORNI 220500Z 28010KT CAVOK 29/05 Q1006 NOSIG

Hora: 08:10 (05:10 UTC)

Pronòstic

L'informe es va fer fa 7 hores i 10 minuts, a les 22:00 UTC
Pronòstic vàlid del 22 a les 00 UTC al 22 a les 24 UTC
Vent 10 kt del Nord-Oest
Visibilitat: 7000 m

TAF: ORNI 212200Z 2200/2224 32010KT 7000 NSC

Observacions i pronòstics meteorològics de més de 4000 aeroports (METAR i TAF).

Les estacions disponibles són els punts grocs i vermells al mapa.

Posi el ratolí al punt desitjat per veure el nom de l'estació.

Feu clic per veure les observacions i els pronòstics meteorològics.

Per canviar el mapa: feu clic els botons verds amb una creu de color negre per apropar; al botó verd amb un guió per allunyar la imatge; o en les fletxes verdes per a mapes adjacents.


METAR-TAF: